Bookmark and Share
Track history (hours):
 

Alice Oldendorff

Last reported at 2012-Jun-15 22:33 UTC. Time now 2014-Apr-24 00:16 UTC.
Position N 41°47' W 071°22'.
Warning: this ship's position is years out of date!

Length 190 m; draft 6.6 m.

Type: Cargo ship. MMSI: 636090432.

NotesDate/timePositionNaut miles runAvg speedWind from/ knotsBaromVisibWave heightAir tempDewpointWater temp
2012-Jun-15 22:33N 41°47' W 071°22'8 7.8
2012-Jun-15 21:33N 41°39' W 071°19'1010.0
2012-Jun-15 20:33N 41°29' W 071°21'7 6.9
2012-Jun-15 19:34N 41°23' W 071°22'1 1.4
2012-Jun-15 18:34N 41°21' W 071°21'2 2.1
2012-Jun-15 17:32N 41°22' W 071°18'0 0.0
2012-Jun-15 16:29N 41°22' W 071°18'0 0.1
2012-Jun-15 15:33N 41°22' W 071°18'0 0.0
2012-Jun-15 14:32N 41°22' W 071°18'0 0.1
2012-Jun-15 13:34N 41°22' W 071°18'6 5.8
2012-Jun-15 12:34N 41°16' W 071°21'1010.1
2012-Jun-15 11:34N 41°06' W 071°21'1010.2
2012-Jun-15 10:35N 40°56' W 071°21'1010.2
2012-Jun-15 09:33N 40°46' W 071°21'1010.3
2012-Jun-15 08:33N 40°36' W 071°21'8 7.7
2012-Jun-15 07:33N 40°33' W 071°11'1110.8
2012-Jun-15 06:33N 40°33' W 070°57'1111.4
2012-Jun-15 05:33N 40°33' W 070°42'1111.4
2012-Jun-15 04:37N 40°33' W 070°28'1211.3
2012-Jun-15 03:33N 40°34' W 070°12'1111.2
2012-Jun-15 02:33N 40°34' W 069°58'1110.8
2012-Jun-15 01:32N 40°34' W 069°43'1010.6
2012-Jun-15 00:33N 40°34' W 069°29'1010.4
2012-Jun-14 23:33N 40°35' W 069°16'4511.0
2012-Jun-14 19:30N 40°36' W 068°17'1210.9
2012-Jun-14 18:23N 40°39' W 068°01'  

Dump ship's entire track history

sailing weather and tide predictions

Alice Oldendorff — ELYI2 — position and weather